Myrtle Creek, Oregon
Current Conditions -  °F | °C
As of 1:53 PM on Monday 20 Oct 2014 (Local Time) from KRBG Reporting Station
Scattered Clouds Scattered Clouds  
Wind Chill: 62°   Ceiling: Unl
Heat Index: 62°   Visibility: 10mi
Dew Point: 53°   Wind: 10mph
Humidity: 72%   Direction: 140°SE
Pressure: 29.83"   Gusts: NA
Location:  43.02°N, 123.29°W
Report Text: KRBG 202053Z AUTO 14009KT 10SM FEW065 SCT080 SCT100 17/12 A2983 RMK AO2 RAB20E38 SLP100 P0001 60001 T01670117 58002
Loading
Personal Weather Stations






























Interactive Weather Map
Tropical Storm Tracking
New forecast layout! Learn more

10-Day Weather Forecast

Advertisements
Track Severe Weather on mobile